sensor_id;sensor_type;location;lat;lon;timestamp;noise_LAeq;noise_LA_min;noise_LA_max;noise_LA01;noise_LA95
72736;Laerm;60856;53.238;10.448;2022-07-23T00:02:16;32.93;31.50;36.25;;
72736;Laerm;60856;53.238;10.448;2022-07-23T00:04:41;33.06;31.56;34.58;;
72736;Laerm;60856;53.238;10.448;2022-07-23T00:07:06;33.13;31.54;34.46;;
72736;Laerm;60856;53.238;10.448;2022-07-23T00:09:31;33.16;31.79;34.89;;
72736;Laerm;60856;53.238;10.448;2022-07-23T00:11:57;33.22;31.80;36.59;;
72736;Laerm;60856;53.238;10.448;2022-07-23T00:14:22;33.34;31.65;38.37;;
72736;Laerm;60856;53.238;10.448;2022-07-23T00:16:47;33.37;31.79;36.01;;
72736;Laerm;60856;53.238;10.448;2022-07-23T00:19:12;37.88;31.92;50.55;;
72736;Laerm;60856;53.238;10.448;2022-07-23T00:21:38;33.20;31.67;34.65;;
72736;Laerm;60856;53.238;10.448;2022-07-23T00:24:03;33.22;31.44;39.43;;
72736;Laerm;60856;53.238;10.448;2022-07-23T00:26:28;33.32;31.72;34.79;;
72736;Laerm;60856;53.238;10.448;2022-07-23T00:28:54;33.43;31.87;35.56;;
72736;Laerm;60856;53.238;10.448;2022-07-23T00:31:19;33.50;31.92;35.70;;
72736;Laerm;60856;53.238;10.448;2022-07-23T00:33:44;33.56;31.84;36.09;;
72736;Laerm;60856;53.238;10.448;2022-07-23T00:36:09;33.62;32.22;35.71;;
72736;Laerm;60856;53.238;10.448;2022-07-23T00:38:35;33.76;31.72;35.49;;
72736;Laerm;60856;53.238;10.448;2022-07-23T00:41:00;33.82;32.37;36.98;;
72736;Laerm;60856;53.238;10.448;2022-07-23T00:43:25;33.84;32.31;37.33;;
72736;Laerm;60856;53.238;10.448;2022-07-23T00:45:52;33.97;32.20;45.60;;
72736;Laerm;60856;53.238;10.448;2022-07-23T00:48:17;34.02;32.44;36.38;;
72736;Laerm;60856;53.238;10.448;2022-07-23T00:50:43;34.07;32.36;36.70;;
72736;Laerm;60856;53.238;10.448;2022-07-23T00:53:08;34.12;32.47;35.63;;
72736;Laerm;60856;53.238;10.448;2022-07-23T01:07:02;34.04;32.51;37.10;;
72736;Laerm;60856;53.238;10.448;2022-07-23T01:21:05;34.19;32.63;36.12;;
72736;Laerm;60856;53.238;10.448;2022-07-23T01:23:30;34.35;32.65;35.96;;
72736;Laerm;60856;53.238;10.448;2022-07-23T01:25:56;34.32;32.94;35.69;;
72736;Laerm;60856;53.238;10.448;2022-07-23T01:28:21;34.44;32.58;35.86;;
72736;Laerm;60856;53.238;10.448;2022-07-23T01:30:46;34.48;32.94;35.88;;
72736;Laerm;60856;53.238;10.448;2022-07-23T01:33:12;34.64;32.89;44.23;;
72736;Laerm;60856;53.238;10.448;2022-07-23T04:19:14;43.72;34.51;66.12;;
72736;Laerm;60856;53.238;10.448;2022-07-23T04:21:39;37.56;33.24;65.07;;
72736;Laerm;60856;53.238;10.448;2022-07-23T04:24:05;42.39;34.38;73.19;;
72736;Laerm;60856;53.238;10.448;2022-07-23T04:26:30;35.46;32.92;52.23;;
72736;Laerm;60856;53.238;10.448;2022-07-23T04:28:55;37.96;33.09;59.77;;
72736;Laerm;60856;53.238;10.448;2022-07-23T04:31:20;36.60;34.46;40.84;;
72736;Laerm;60856;53.238;10.448;2022-07-23T04:33:46;34.77;32.60;43.67;;
72736;Laerm;60856;53.238;10.448;2022-07-23T04:36:11;34.87;33.02;38.95;;
72736;Laerm;60856;53.238;10.448;2022-07-23T04:38:36;35.26;33.30;40.53;;
72736;Laerm;60856;53.238;10.448;2022-07-23T04:41:01;35.66;33.44;45.31;;
72736;Laerm;60856;53.238;10.448;2022-07-23T04:43:27;37.10;33.81;51.59;;
72736;Laerm;60856;53.238;10.448;2022-07-23T04:45:52;39.88;35.08;53.70;;
72736;Laerm;60856;53.238;10.448;2022-07-23T04:48:17;40.41;35.82;51.64;;
72736;Laerm;60856;53.238;10.448;2022-07-23T04:50:43;38.13;35.03;50.71;;
72736;Laerm;60856;53.238;10.448;2022-07-23T04:53:08;36.71;34.69;48.20;;
72736;Laerm;60856;53.238;10.448;2022-07-23T04:55:33;36.78;34.55;49.57;;
72736;Laerm;60856;53.238;10.448;2022-07-23T04:57:59;37.59;34.92;47.04;;
72736;Laerm;60856;53.238;10.448;2022-07-23T05:00:24;37.74;35.28;47.80;;
72736;Laerm;60856;53.238;10.448;2022-07-23T05:02:49;39.10;35.41;49.01;;
72736;Laerm;60856;53.238;10.448;2022-07-23T05:05:14;39.54;36.02;49.21;;
72736;Laerm;60856;53.238;10.448;2022-07-23T05:07:40;39.66;36.21;51.71;;
72736;Laerm;60856;53.238;10.448;2022-07-23T05:10:05;40.90;36.62;53.45;;
72736;Laerm;60856;53.238;10.448;2022-07-23T06:17:25;53.70;34.67;67.80;;
72736;Laerm;60856;53.238;10.448;2022-07-23T06:19:51;52.81;35.15;64.03;;
72736;Laerm;60856;53.238;10.448;2022-07-23T06:22:16;56.19;17.63;71.27;;
72736;Laerm;60856;53.238;10.448;2022-07-23T06:24:42;55.37;50.91;72.58;;
72736;Laerm;60856;53.238;10.448;2022-07-23T06:27:07;55.67;50.21;72.83;;
72736;Laerm;60856;53.238;10.448;2022-07-23T06:29:32;52.96;48.93;68.83;;
72736;Laerm;60856;53.238;10.448;2022-07-23T06:31:58;55.19;49.56;72.32;;
72736;Laerm;60856;53.238;10.448;2022-07-23T06:34:23;57.84;49.97;74.21;;
72736;Laerm;60856;53.238;10.448;2022-07-23T06:36:48;57.88;46.71;72.86;;
72736;Laerm;60856;53.238;10.448;2022-07-23T06:39:13;52.40;34.19;71.85;;
72736;Laerm;60856;53.238;10.448;2022-07-23T06:41:39;35.57;31.05;46.24;;
72736;Laerm;60856;53.238;10.448;2022-07-23T06:44:04;34.84;30.50;46.03;;
72736;Laerm;60856;53.238;10.448;2022-07-23T06:46:29;36.01;31.14;50.72;;
72736;Laerm;60856;53.238;10.448;2022-07-23T06:48:55;38.06;31.13;52.16;;
72736;Laerm;60856;53.238;10.448;2022-07-23T06:51:20;41.64;31.22;61.00;;
72736;Laerm;60856;53.238;10.448;2022-07-23T06:53:46;37.19;30.38;54.48;;
72736;Laerm;60856;53.238;10.448;2022-07-23T06:56:11;44.23;31.16;66.35;;
72736;Laerm;60856;53.238;10.448;2022-07-23T06:58:36;43.12;30.81;62.12;;
72736;Laerm;60856;53.238;10.448;2022-07-23T07:01:02;50.34;31.81;69.46;;
72736;Laerm;60856;53.238;10.448;2022-07-23T07:03:27;47.52;34.49;57.28;;
72736;Laerm;60856;53.238;10.448;2022-07-23T07:05:52;54.00;-29.45;66.11;;
72736;Laerm;60856;53.238;10.448;2022-07-23T07:08:18;51.81;46.42;56.12;;
72736;Laerm;60856;53.238;10.448;2022-07-23T07:10:43;51.73;47.09;54.99;;
72736;Laerm;60856;53.238;10.448;2022-07-23T07:13:08;45.69;34.39;54.03;;
72736;Laerm;60856;53.238;10.448;2022-07-23T07:15:34;46.75;30.97;54.75;;
72736;Laerm;60856;53.238;10.448;2022-07-23T07:17:59;47.97;29.53;54.13;;
72736;Laerm;60856;53.238;10.448;2022-07-23T07:20:24;44.75;29.74;57.46;;
72736;Laerm;60856;53.238;10.448;2022-07-23T07:22:49;50.04;42.15;54.80;;
72736;Laerm;60856;53.238;10.448;2022-07-23T07:25:15;48.38;30.39;54.82;;
72736;Laerm;60856;53.238;10.448;2022-07-23T07:27:40;44.72;29.75;69.64;;
72736;Laerm;60856;53.238;10.448;2022-07-23T07:30:05;49.52;28.79;58.57;;
72736;Laerm;60856;53.238;10.448;2022-07-23T07:32:31;49.54;29.36;59.53;;
72736;Laerm;60856;53.238;10.448;2022-07-23T07:34:57;50.77;38.77;57.50;;
72736;Laerm;60856;53.238;10.448;2022-07-23T07:37:23;57.16;22.27;67.31;;
72736;Laerm;60856;53.238;10.448;2022-07-23T07:39:48;51.16;29.96;66.41;;
72736;Laerm;60856;53.238;10.448;2022-07-23T07:42:13;39.47;30.03;60.21;;
72736;Laerm;60856;53.238;10.448;2022-07-23T07:44:39;37.58;29.35;62.74;;
72736;Laerm;60856;53.238;10.448;2022-07-23T07:47:04;33.84;29.94;52.52;;
72736;Laerm;60856;53.238;10.448;2022-07-23T07:49:29;36.56;29.81;50.90;;
72736;Laerm;60856;53.238;10.448;2022-07-23T07:51:54;45.71;30.34;50.95;;
72736;Laerm;60856;53.238;10.448;2022-07-23T07:54:19;44.64;31.65;52.09;;
72736;Laerm;60856;53.238;10.448;2022-07-23T07:56:45;35.34;30.11;54.60;;
72736;Laerm;60856;53.238;10.448;2022-07-23T07:59:10;48.96;30.28;58.35;;
72736;Laerm;60856;53.238;10.448;2022-07-23T08:01:36;53.60;30.68;70.67;;
72736;Laerm;60856;53.238;10.448;2022-07-23T08:04:01;51.57;30.07;60.94;;
72736;Laerm;60856;53.238;10.448;2022-07-23T08:06:27;33.80;29.29;49.70;;
72736;Laerm;60856;53.238;10.448;2022-07-23T08:08:52;34.89;30.21;50.33;;
72736;Laerm;60856;53.238;10.448;2022-07-23T08:11:17;40.94;30.12;58.80;;
72736;Laerm;60856;53.238;10.448;2022-07-23T08:13:42;50.07;29.96;61.36;;
72736;Laerm;60856;53.238;10.448;2022-07-23T08:16:09;52.35;30.21;59.84;;
72736;Laerm;60856;53.238;10.448;2022-07-23T08:18:34;41.79;30.31;58.32;;
72736;Laerm;60856;53.238;10.448;2022-07-23T08:21:00;33.97;29.47;47.34;;
72736;Laerm;60856;53.238;10.448;2022-07-23T08:23:25;33.92;29.86;47.85;;
72736;Laerm;60856;53.238;10.448;2022-07-23T08:25:50;37.49;30.47;50.96;;
72736;Laerm;60856;53.238;10.448;2022-07-23T08:28:15;34.47;30.31;44.43;;
72736;Laerm;60856;53.238;10.448;2022-07-23T08:30:41;33.49;30.10;49.36;;
72736;Laerm;60856;53.238;10.448;2022-07-23T08:33:10;38.33;30.48;58.79;;
72736;Laerm;60856;53.238;10.448;2022-07-23T08:35:38;32.20;29.72;43.17;;
72736;Laerm;60856;53.238;10.448;2022-07-23T08:38:05;31.98;29.47;45.69;;
72736;Laerm;60856;53.238;10.448;2022-07-23T08:40:31;36.12;29.30;49.21;;
72736;Laerm;60856;53.238;10.448;2022-07-23T08:42:58;36.51;29.50;52.11;;
72736;Laerm;60856;53.238;10.448;2022-07-23T08:45:24;36.61;29.62;54.48;;
72736;Laerm;60856;53.238;10.448;2022-07-23T08:47:50;37.48;29.98;49.99;;
72736;Laerm;60856;53.238;10.448;2022-07-23T08:50:16;36.05;30.06;47.44;;
72736;Laerm;60856;53.238;10.448;2022-07-23T08:52:41;38.17;30.77;50.71;;
72736;Laerm;60856;53.238;10.448;2022-07-23T08:55:07;36.88;30.56;51.34;;
72736;Laerm;60856;53.238;10.448;2022-07-23T08:57:32;36.50;30.87;48.99;;
72736;Laerm;60856;53.238;10.448;2022-07-23T08:59:57;37.56;33.13;47.92;;
72736;Laerm;60856;53.238;10.448;2022-07-23T09:02:23;39.46;34.26;50.14;;
72736;Laerm;60856;53.238;10.448;2022-07-23T09:04:48;39.40;34.37;49.96;;
72736;Laerm;60856;53.238;10.448;2022-07-23T09:07:13;57.29;32.47;76.91;;
72736;Laerm;60856;53.238;10.448;2022-07-23T09:09:38;57.14;31.67;73.03;;
72736;Laerm;60856;53.238;10.448;2022-07-23T09:12:04;50.09;31.82;72.79;;
72736;Laerm;60856;53.238;10.448;2022-07-23T09:14:39;41.91;29.94;60.50;;
72736;Laerm;60856;53.238;10.448;2022-07-23T09:17:23;36.07;29.53;57.76;;
72736;Laerm;60856;53.238;10.448;2022-07-23T09:19:48;39.17;29.76;58.32;;
72736;Laerm;60856;53.238;10.448;2022-07-23T09:22:20;47.69;29.88;60.00;;
72736;Laerm;60856;53.238;10.448;2022-07-23T09:25:02;46.67;31.38;58.02;;
72736;Laerm;60856;53.238;10.448;2022-07-23T09:27:48;46.23;31.24;57.42;;
72736;Laerm;60856;53.238;10.448;2022-07-23T09:30:14;42.91;29.51;54.47;;
72736;Laerm;60856;53.238;10.448;2022-07-23T09:32:40;36.30;29.98;48.45;;
72736;Laerm;60856;53.238;10.448;2022-07-23T09:35:05;36.49;31.02;48.88;;
72736;Laerm;60856;53.238;10.448;2022-07-23T09:37:30;34.35;29.96;45.41;;
72736;Laerm;60856;53.238;10.448;2022-07-23T09:40:03;37.48;30.17;52.45;;
72736;Laerm;60856;53.238;10.448;2022-07-23T09:42:29;36.90;29.84;48.61;;
72736;Laerm;60856;53.238;10.448;2022-07-23T09:44:55;50.52;29.65;70.79;;
72736;Laerm;60856;53.238;10.448;2022-07-23T09:47:21;53.42;29.86;71.81;;
72736;Laerm;60856;53.238;10.448;2022-07-23T09:50:04;51.06;30.08;71.37;;
72736;Laerm;60856;53.238;10.448;2022-07-23T09:52:32;56.41;29.88;75.91;;
72736;Laerm;60856;53.238;10.448;2022-07-23T09:54:58;41.51;30.31;63.27;;
72736;Laerm;60856;53.238;10.448;2022-07-23T09:57:24;33.78;30.19;46.28;;
72736;Laerm;60856;53.238;10.448;2022-07-23T09:59:51;32.98;30.43;44.54;;
72736;Laerm;60856;53.238;10.448;2022-07-23T10:02:17;36.46;30.01;51.23;;
72736;Laerm;60856;53.238;10.448;2022-07-23T10:04:43;38.69;29.89;54.19;;
72736;Laerm;60856;53.238;10.448;2022-07-23T10:07:09;34.01;30.14;56.17;;
72736;Laerm;60856;53.238;10.448;2022-07-23T10:09:40;33.86;29.93;56.47;;
72736;Laerm;60856;53.238;10.448;2022-07-23T10:12:09;34.48;29.48;48.03;;
72736;Laerm;60856;53.238;10.448;2022-07-23T10:14:40;34.50;30.10;50.30;;
72736;Laerm;60856;53.238;10.448;2022-07-23T10:17:06;38.98;30.38;57.40;;
72736;Laerm;60856;53.238;10.448;2022-07-23T10:19:32;37.16;29.80;50.81;;
72736;Laerm;60856;53.238;10.448;2022-07-23T10:21:58;48.58;29.72;59.41;;
72736;Laerm;60856;53.238;10.448;2022-07-23T10:24:28;51.25;30.85;57.63;;
72736;Laerm;60856;53.238;10.448;2022-07-23T10:27:09;51.04;30.73;59.74;;
72736;Laerm;60856;53.238;10.448;2022-07-23T10:29:47;37.57;30.59;55.20;;
72736;Laerm;60856;53.238;10.448;2022-07-23T10:32:34;33.20;29.53;49.53;;
72736;Laerm;60856;53.238;10.448;2022-07-23T10:37:47;36.04;30.13;50.43;;
72736;Laerm;60856;53.238;10.448;2022-07-23T10:40:17;39.01;35.07;49.17;;
72736;Laerm;60856;53.238;10.448;2022-07-23T10:42:44;38.12;31.36;47.47;;
72736;Laerm;60856;53.238;10.448;2022-07-23T10:47:54;33.88;30.63;47.36;;
72736;Laerm;60856;53.238;10.448;2022-07-23T10:50:23;35.99;29.58;48.37;;
72736;Laerm;60856;53.238;10.448;2022-07-23T10:55:53;37.14;30.88;50.39;;
72736;Laerm;60856;53.238;10.448;2022-07-23T10:58:19;34.41;30.20;48.77;;
72736;Laerm;60856;53.238;10.448;2022-07-23T11:00:45;35.35;30.42;49.17;;
72736;Laerm;60856;53.238;10.448;2022-07-23T11:03:30;34.17;29.94;50.31;;
72736;Laerm;60856;53.238;10.448;2022-07-23T11:05:57;37.20;30.83;50.51;;
72736;Laerm;60856;53.238;10.448;2022-07-23T11:08:22;36.03;30.66;48.22;;
72736;Laerm;60856;53.238;10.448;2022-07-23T11:37:04;35.74;31.19;47.08;;
72736;Laerm;60856;53.238;10.448;2022-07-23T11:39:30;33.69;30.14;45.76;;
72736;Laerm;60856;53.238;10.448;2022-07-23T11:41:56;34.32;30.70;47.86;;
72736;Laerm;60856;53.238;10.448;2022-07-23T11:44:39;35.61;30.56;47.89;;
72736;Laerm;60856;53.238;10.448;2022-07-23T11:47:08;38.80;30.61;66.09;;
72736;Laerm;60856;53.238;10.448;2022-07-23T11:49:34;33.44;30.10;45.68;;
72736;Laerm;60856;53.238;10.448;2022-07-23T11:54:28;39.71;30.81;63.08;;
72736;Laerm;60856;53.238;10.448;2022-07-23T11:56:58;34.41;31.43;46.30;;
72736;Laerm;60856;53.238;10.448;2022-07-23T11:59:24;41.55;31.60;74.09;;
72736;Laerm;60856;53.238;10.448;2022-07-23T12:04:45;35.51;29.83;47.96;;
72736;Laerm;60856;53.238;10.448;2022-07-23T12:09:49;33.92;30.29;46.33;;
72736;Laerm;60856;53.238;10.448;2022-07-23T12:12:14;34.95;29.97;50.04;;
72736;Laerm;60856;53.238;10.448;2022-07-23T12:17:14;36.36;30.38;49.59;;
72736;Laerm;60856;53.238;10.448;2022-07-23T12:19:39;33.31;30.03;49.97;;
72736;Laerm;60856;53.238;10.448;2022-07-23T12:22:04;32.52;29.80;47.55;;
72736;Laerm;60856;53.238;10.448;2022-07-23T12:24:30;37.12;30.25;49.02;;
72736;Laerm;60856;53.238;10.448;2022-07-23T12:27:08;36.68;29.65;56.86;;
72736;Laerm;60856;53.238;10.448;2022-07-23T12:29:37;34.21;29.94;50.19;;
72736;Laerm;60856;53.238;10.448;2022-07-23T12:32:02;38.39;31.14;49.86;;
72736;Laerm;60856;53.238;10.448;2022-07-23T12:34:39;35.50;30.54;50.03;;
72736;Laerm;60856;53.238;10.448;2022-07-23T12:37:05;34.62;30.48;52.81;;
72736;Laerm;60856;53.238;10.448;2022-07-23T12:39:30;36.96;30.70;54.36;;
72736;Laerm;60856;53.238;10.448;2022-07-23T12:41:56;38.31;30.93;52.56;;
72736;Laerm;60856;53.238;10.448;2022-07-23T12:44:21;39.03;31.26;54.62;;
72736;Laerm;60856;53.238;10.448;2022-07-23T12:46:49;41.24;30.63;56.54;;
72736;Laerm;60856;53.238;10.448;2022-07-23T12:49:24;34.27;31.21;44.04;;
72736;Laerm;60856;53.238;10.448;2022-07-23T12:51:50;33.76;30.79;42.15;;
72736;Laerm;60856;53.238;10.448;2022-07-23T12:54:15;34.98;31.33;50.30;;
72736;Laerm;60856;53.238;10.448;2022-07-23T12:56:40;35.68;30.63;50.82;;
72736;Laerm;60856;53.238;10.448;2022-07-23T12:59:09;39.19;30.35;57.91;;
72736;Laerm;60856;53.238;10.448;2022-07-23T13:04:10;38.78;30.23;50.71;;
72736;Laerm;60856;53.238;10.448;2022-07-23T13:06:37;36.82;30.64;51.84;;
72736;Laerm;60856;53.238;10.448;2022-07-23T13:09:03;36.20;31.86;61.21;;
72736;Laerm;60856;53.238;10.448;2022-07-23T13:11:29;37.88;29.65;57.39;;
72736;Laerm;60856;53.238;10.448;2022-07-23T13:13:54;36.44;29.87;48.52;;
72736;Laerm;60856;53.238;10.448;2022-07-23T13:16:19;37.49;30.42;50.91;;
72736;Laerm;60856;53.238;10.448;2022-07-23T13:18:45;42.33;29.55;58.72;;
72736;Laerm;60856;53.238;10.448;2022-07-23T13:21:10;43.15;30.90;53.97;;
72736;Laerm;60856;53.238;10.448;2022-07-23T13:23:36;34.32;30.28;45.98;;
72736;Laerm;60856;53.238;10.448;2022-07-23T13:26:01;33.56;30.17;47.50;;
72736;Laerm;60856;53.238;10.448;2022-07-23T13:28:26;38.34;30.80;54.10;;
72736;Laerm;60856;53.238;10.448;2022-07-23T13:30:52;40.17;30.11;57.13;;
72736;Laerm;60856;53.238;10.448;2022-07-23T13:33:18;33.64;30.47;46.52;;
72736;Laerm;60856;53.238;10.448;2022-07-23T13:35:43;35.56;30.23;49.06;;
72736;Laerm;60856;53.238;10.448;2022-07-23T13:38:09;33.70;29.96;49.49;;
72736;Laerm;60856;53.238;10.448;2022-07-23T13:40:35;32.86;29.63;43.86;;
72736;Laerm;60856;53.238;10.448;2022-07-23T13:43:01;35.41;29.69;54.11;;
72736;Laerm;60856;53.238;10.448;2022-07-23T13:45:27;37.65;30.01;49.64;;
72736;Laerm;60856;53.238;10.448;2022-07-23T13:47:52;32.80;30.25;38.30;;
72736;Laerm;60856;53.238;10.448;2022-07-23T13:50:17;33.21;30.51;44.12;;
72736;Laerm;60856;53.238;10.448;2022-07-23T13:52:43;37.54;30.52;50.61;;
72736;Laerm;60856;53.238;10.448;2022-07-23T13:55:08;41.67;29.69;53.70;;
72736;Laerm;60856;53.238;10.448;2022-07-23T13:57:34;36.52;30.17;54.93;;
72736;Laerm;60856;53.238;10.448;2022-07-23T13:59:59;40.01;31.11;63.99;;
72736;Laerm;60856;53.238;10.448;2022-07-23T14:02:24;36.67;30.68;56.19;;
72736;Laerm;60856;53.238;10.448;2022-07-23T14:04:50;37.61;31.35;50.21;;
72736;Laerm;60856;53.238;10.448;2022-07-23T14:07:15;34.32;30.33;49.47;;
72736;Laerm;60856;53.238;10.448;2022-07-23T14:09:40;47.17;36.12;63.17;;
72736;Laerm;60856;53.238;10.448;2022-07-23T14:12:06;39.21;30.57;49.89;;
72736;Laerm;60856;53.238;10.448;2022-07-23T14:14:31;34.35;29.76;45.28;;
72736;Laerm;60856;53.238;10.448;2022-07-23T14:16:56;33.39;30.32;48.58;;
72736;Laerm;60856;53.238;10.448;2022-07-23T14:19:22;38.54;30.68;57.29;;
72736;Laerm;60856;53.238;10.448;2022-07-23T14:21:47;37.35;30.57;50.90;;
72736;Laerm;60856;53.238;10.448;2022-07-23T14:24:13;37.64;30.78;54.47;;
72736;Laerm;60856;53.238;10.448;2022-07-23T14:26:39;34.46;29.61;51.51;;
72736;Laerm;60856;53.238;10.448;2022-07-23T14:29:04;34.21;29.82;53.07;;
72736;Laerm;60856;53.238;10.448;2022-07-23T14:31:29;38.43;30.52;52.05;;
72736;Laerm;60856;53.238;10.448;2022-07-23T14:33:54;39.94;31.91;56.48;;
72736;Laerm;60856;53.238;10.448;2022-07-23T14:36:20;34.74;30.50;50.43;;
72736;Laerm;60856;53.238;10.448;2022-07-23T14:38:45;41.02;33.95;54.56;;
72736;Laerm;60856;53.238;10.448;2022-07-23T14:41:10;37.52;34.40;53.32;;
72736;Laerm;60856;53.238;10.448;2022-07-23T14:43:36;37.09;34.24;51.39;;
72736;Laerm;60856;53.238;10.448;2022-07-23T14:46:01;36.90;34.45;50.18;;
72736;Laerm;60856;53.238;10.448;2022-07-23T14:48:26;37.49;31.37;54.56;;
72736;Laerm;60856;53.238;10.448;2022-07-23T14:50:52;34.52;30.98;48.88;;
72736;Laerm;60856;53.238;10.448;2022-07-23T14:53:17;34.76;30.62;50.03;;
72736;Laerm;60856;53.238;10.448;2022-07-23T14:55:43;34.19;30.32;50.55;;
72736;Laerm;60856;53.238;10.448;2022-07-23T14:58:08;32.85;29.75;47.59;;
72736;Laerm;60856;53.238;10.448;2022-07-23T15:00:33;38.52;29.49;54.68;;
72736;Laerm;60856;53.238;10.448;2022-07-23T15:02:59;34.54;30.15;53.14;;
72736;Laerm;60856;53.238;10.448;2022-07-23T15:05:24;38.73;30.04;52.37;;
72736;Laerm;60856;53.238;10.448;2022-07-23T15:07:49;33.44;30.12;45.94;;
72736;Laerm;60856;53.238;10.448;2022-07-23T15:10:14;34.45;30.16;47.28;;
72736;Laerm;60856;53.238;10.448;2022-07-23T15:12:41;50.62;30.69;73.41;;
72736;Laerm;60856;53.238;10.448;2022-07-23T15:15:06;51.63;31.37;73.72;;
72736;Laerm;60856;53.238;10.448;2022-07-23T15:17:32;57.38;30.46;78.86;;
72736;Laerm;60856;53.238;10.448;2022-07-23T15:19:57;62.11;30.00;86.44;;
72736;Laerm;60856;53.238;10.448;2022-07-23T15:22:22;51.86;30.23;77.36;;
72736;Laerm;60856;53.238;10.448;2022-07-23T15:24:48;38.80;30.87;54.55;;
72736;Laerm;60856;53.238;10.448;2022-07-23T15:27:13;36.33;30.42;49.93;;
72736;Laerm;60856;53.238;10.448;2022-07-23T15:29:38;34.79;30.64;50.51;;
72736;Laerm;60856;53.238;10.448;2022-07-23T15:32:04;35.77;31.46;48.57;;
72736;Laerm;60856;53.238;10.448;2022-07-23T15:34:29;33.90;30.26;52.69;;
72736;Laerm;60856;53.238;10.448;2022-07-23T15:36:54;34.23;30.47;47.67;;
72736;Laerm;60856;53.238;10.448;2022-07-23T15:39:20;34.01;30.13;47.79;;
72736;Laerm;60856;53.238;10.448;2022-07-23T15:41:45;35.82;30.46;55.28;;
72736;Laerm;60856;53.238;10.448;2022-07-23T15:44:10;36.03;31.32;54.27;;
72736;Laerm;60856;53.238;10.448;2022-07-23T15:46:36;38.43;32.17;54.24;;
72736;Laerm;60856;53.238;10.448;2022-07-23T15:49:02;40.65;31.24;54.93;;
72736;Laerm;60856;53.238;10.448;2022-07-23T15:51:27;38.56;31.49;53.91;;
72736;Laerm;60856;53.238;10.448;2022-07-23T15:53:53;34.32;30.98;49.15;;
72736;Laerm;60856;53.238;10.448;2022-07-23T15:56:19;33.95;30.69;46.87;;
72736;Laerm;60856;53.238;10.448;2022-07-23T15:58:44;34.24;30.81;47.55;;
72736;Laerm;60856;53.238;10.448;2022-07-23T16:01:09;34.60;30.09;52.42;;
72736;Laerm;60856;53.238;10.448;2022-07-23T16:03:35;37.40;30.49;54.61;;
72736;Laerm;60856;53.238;10.448;2022-07-23T16:06:00;34.21;30.42;49.01;;
72736;Laerm;60856;53.238;10.448;2022-07-23T16:08:26;35.75;30.54;47.76;;
72736;Laerm;60856;53.238;10.448;2022-07-23T16:10:51;38.89;31.38;59.46;;
72736;Laerm;60856;53.238;10.448;2022-07-23T16:13:17;36.92;32.23;62.50;;
72736;Laerm;60856;53.238;10.448;2022-07-23T16:15:42;38.21;32.10;56.85;;
72736;Laerm;60856;53.238;10.448;2022-07-23T16:18:08;36.80;31.82;53.30;;
72736;Laerm;60856;53.238;10.448;2022-07-23T16:20:34;35.21;31.27;52.00;;
72736;Laerm;60856;53.238;10.448;2022-07-23T16:22:59;33.94;30.91;47.44;;
72736;Laerm;60856;53.238;10.448;2022-07-23T16:25:24;40.84;31.60;67.78;;
72736;Laerm;60856;53.238;10.448;2022-07-23T16:27:50;36.79;31.36;51.30;;
72736;Laerm;60856;53.238;10.448;2022-07-23T16:30:15;35.65;30.96;57.99;;
72736;Laerm;60856;53.238;10.448;2022-07-23T16:32:40;54.81;30.90;85.31;;
72736;Laerm;60856;53.238;10.448;2022-07-23T16:35:06;51.54;30.37;83.41;;
72736;Laerm;60856;53.238;10.448;2022-07-23T16:37:33;66.89;31.88;96.98;;
72736;Laerm;60856;53.238;10.448;2022-07-23T16:40:09;36.75;31.52;48.85;;
72736;Laerm;60856;53.238;10.448;2022-07-23T16:42:34;35.03;31.62;52.49;;
72736;Laerm;60856;53.238;10.448;2022-07-23T16:45:00;37.05;31.64;48.16;;
72736;Laerm;60856;53.238;10.448;2022-07-23T16:47:26;40.82;31.30;58.18;;
72736;Laerm;60856;53.238;10.448;2022-07-23T16:49:51;37.06;30.74;52.93;;
72736;Laerm;60856;53.238;10.448;2022-07-23T16:52:16;39.08;30.50;71.52;;
72736;Laerm;60856;53.238;10.448;2022-07-23T16:54:45;39.09;30.83;51.97;;
72736;Laerm;60856;53.238;10.448;2022-07-23T16:57:10;37.07;30.94;52.75;;
72736;Laerm;60856;53.238;10.448;2022-07-23T16:59:35;40.36;30.47;59.78;;
72736;Laerm;60856;53.238;10.448;2022-07-23T17:02:01;44.67;27.09;59.01;;
72736;Laerm;60856;53.238;10.448;2022-07-23T17:04:27;35.70;31.63;49.34;;
72736;Laerm;60856;53.238;10.448;2022-07-23T17:06:52;35.71;31.73;45.96;;
72736;Laerm;60856;53.238;10.448;2022-07-23T17:09:18;35.73;31.44;53.03;;
72736;Laerm;60856;53.238;10.448;2022-07-23T17:11:43;36.76;31.32;48.41;;
72736;Laerm;60856;53.238;10.448;2022-07-23T17:14:08;43.33;30.70;67.03;;
72736;Laerm;60856;53.238;10.448;2022-07-23T17:16:33;44.63;30.11;57.66;;
72736;Laerm;60856;53.238;10.448;2022-07-23T17:19:00;33.45;30.10;45.28;;
72736;Laerm;60856;53.238;10.448;2022-07-23T17:21:25;34.49;30.09;48.15;;
72736;Laerm;60856;53.238;10.448;2022-07-23T17:23:50;34.67;30.16;53.75;;
72736;Laerm;60856;53.238;10.448;2022-07-23T17:26:15;42.70;29.86;66.22;;
72736;Laerm;60856;53.238;10.448;2022-07-23T17:28:41;38.31;30.40;51.13;;
72736;Laerm;60856;53.238;10.448;2022-07-23T17:31:06;34.95;30.86;53.41;;
72736;Laerm;60856;53.238;10.448;2022-07-23T17:33:31;42.46;30.64;56.44;;
72736;Laerm;60856;53.238;10.448;2022-07-23T17:35:56;36.37;30.54;48.56;;
72736;Laerm;60856;53.238;10.448;2022-07-23T17:38:22;33.97;30.32;50.27;;
72736;Laerm;60856;53.238;10.448;2022-07-23T17:40:48;38.03;30.31;58.18;;
72736;Laerm;60856;53.238;10.448;2022-07-23T17:43:15;39.92;30.95;62.07;;
72736;Laerm;60856;53.238;10.448;2022-07-23T17:45:41;37.03;31.02;54.85;;
72736;Laerm;60856;53.238;10.448;2022-07-23T17:48:07;42.96;31.23;54.68;;
72736;Laerm;60856;53.238;10.448;2022-07-23T17:50:32;44.15;30.63;54.81;;
72736;Laerm;60856;53.238;10.448;2022-07-23T17:52:57;33.49;30.58;48.73;;
72736;Laerm;60856;53.238;10.448;2022-07-23T17:55:23;33.58;30.60;48.27;;
72736;Laerm;60856;53.238;10.448;2022-07-23T17:57:49;33.00;30.14;46.83;;
72736;Laerm;60856;53.238;10.448;2022-07-23T18:00:15;36.18;30.44;51.79;;
72736;Laerm;60856;53.238;10.448;2022-07-23T18:02:41;36.29;30.89;54.08;;
72736;Laerm;60856;53.238;10.448;2022-07-23T18:05:07;37.48;30.77;49.66;;
72736;Laerm;60856;53.238;10.448;2022-07-23T18:07:33;38.67;30.75;63.95;;
72736;Laerm;60856;53.238;10.448;2022-07-23T18:09:58;42.59;30.43;67.46;;
72736;Laerm;60856;53.238;10.448;2022-07-23T18:12:23;34.13;30.74;45.57;;
72736;Laerm;60856;53.238;10.448;2022-07-23T18:14:49;36.79;30.03;52.41;;
72736;Laerm;60856;53.238;10.448;2022-07-23T18:17:15;38.04;30.59;51.91;;
72736;Laerm;60856;53.238;10.448;2022-07-23T18:19:40;37.47;30.93;50.23;;
72736;Laerm;60856;53.238;10.448;2022-07-23T18:22:05;36.35;31.03;47.37;;
72736;Laerm;60856;53.238;10.448;2022-07-23T18:24:31;35.15;30.55;50.30;;
72736;Laerm;60856;53.238;10.448;2022-07-23T18:26:56;34.85;30.29;46.66;;